createdAt,value
2019-05-20T00:00:15.281Z,14.19
2019-05-20T00:02:48.677Z,14.22
2019-05-20T00:05:21.359Z,14.23
2019-05-20T00:07:53.933Z,14.25
2019-05-20T00:10:26.613Z,14.27
2019-05-20T00:12:59.297Z,14.26
2019-05-20T00:15:32.177Z,14.26
2019-05-20T00:18:04.807Z,14.26
2019-05-20T00:20:37.432Z,14.24
2019-05-20T00:23:10.020Z,14.14
2019-05-20T00:25:42.694Z,14.13
2019-05-20T00:28:15.267Z,14.09
2019-05-20T00:30:47.765Z,14.07
2019-05-20T00:33:19.987Z,14.06
2019-05-20T00:35:52.690Z,14.07
2019-05-20T00:38:25.339Z,14.08
2019-05-20T00:40:58.055Z,14.08
2019-05-20T00:43:30.516Z,14.11
2019-05-20T00:46:03.815Z,14.13
2019-05-20T00:48:36.491Z,14.10
2019-05-20T00:51:09.223Z,14.12
2019-05-20T00:53:41.856Z,14.15
2019-05-20T00:56:15.862Z,14.17
2019-05-20T00:58:48.542Z,14.17
2019-05-20T01:01:21.220Z,14.16
2019-05-20T01:03:53.901Z,14.16
2019-05-20T01:06:26.590Z,14.19
2019-05-20T01:08:59.255Z,14.22
2019-05-20T01:11:31.549Z,14.20
2019-05-20T01:14:04.834Z,14.17
2019-05-20T01:16:37.706Z,14.16
2019-05-20T01:19:10.396Z,14.16
2019-05-20T01:21:43.165Z,14.10
2019-05-20T01:24:15.745Z,14.07
2019-05-20T01:26:48.422Z,14.06
2019-05-20T01:29:22.540Z,14.04
2019-05-20T01:31:55.211Z,14.01
2019-05-20T01:34:28.202Z,14.02
2019-05-20T01:37:00.892Z,13.99
2019-05-20T01:39:33.566Z,14.00
2019-05-20T01:42:06.243Z,13.96
2019-05-20T01:44:38.472Z,13.92
2019-05-20T01:47:11.195Z,13.91
2019-05-20T01:49:44.897Z,13.88
2019-05-20T01:52:17.690Z,13.84
2019-05-20T01:54:50.357Z,13.86
2019-05-20T01:57:23.035Z,13.82
2019-05-20T01:59:55.717Z,13.77
2019-05-20T02:02:28.399Z,13.73
2019-05-20T02:05:01.425Z,13.71
2019-05-20T02:07:34.374Z,13.67
2019-05-20T02:10:10.118Z,13.60
2019-05-20T02:12:42.797Z,13.52
2019-05-20T02:15:21.302Z,13.52
2019-05-20T02:17:54.714Z,13.45
2019-05-20T02:20:26.952Z,13.38
2019-05-20T02:23:17.989Z,13.35
2019-05-20T02:25:51.480Z,13.33
2019-05-20T02:28:25.285Z,13.31
2019-05-20T02:30:57.993Z,13.30
2019-05-20T02:33:47.868Z,13.30
2019-05-20T02:36:05.070Z,13.33
2019-05-20T02:38:37.752Z,13.34
2019-05-20T02:41:10.429Z,13.32
2019-05-20T02:43:43.109Z,13.34
2019-05-20T02:46:15.689Z,13.33
2019-05-20T02:48:48.354Z,13.34
2019-05-20T02:51:22.581Z,13.36
2019-05-20T02:53:55.265Z,13.36
2019-05-20T02:56:27.934Z,13.38
2019-05-20T02:59:00.609Z,13.38
2019-05-20T03:01:33.185Z,13.39
2019-05-20T03:04:12.253Z,13.39
2019-05-20T03:06:40.169Z,13.39
2019-05-20T03:09:12.918Z,13.38
2019-05-20T03:11:45.112Z,13.40
2019-05-20T03:18:02.686Z,13.40
2019-05-20T03:20:35.389Z,13.41
2019-05-20T03:23:08.061Z,13.42
2019-05-20T03:25:40.772Z,13.42
2019-05-20T03:28:13.442Z,13.46
2019-05-20T03:30:46.109Z,13.48
2019-05-20T03:33:18.785Z,13.52
2019-05-20T03:35:51.574Z,13.56
2019-05-20T03:38:24.246Z,13.58
2019-05-20T03:40:56.925Z,13.62
2019-05-20T03:43:29.604Z,13.64
2019-05-20T03:46:02.284Z,13.67
2019-05-20T03:48:36.497Z,13.71
2019-05-20T03:51:09.180Z,13.74
2019-05-20T03:53:41.859Z,13.80
2019-05-20T03:56:14.960Z,13.82
2019-05-20T03:58:47.521Z,13.87
2019-05-20T04:01:20.203Z,13.91
2019-05-20T04:03:52.875Z,13.97
2019-05-20T04:06:25.501Z,14.05
2019-05-20T04:08:58.137Z,14.10
2019-05-20T04:11:30.809Z,14.12
2019-05-20T04:14:03.394Z,14.16
2019-05-20T04:16:36.099Z,14.22
2019-05-20T04:19:08.750Z,14.26
2019-05-20T04:21:41.420Z,14.31
2019-05-20T04:24:18.478Z,14.40
2019-05-20T04:27:02.848Z,14.50
2019-05-20T04:29:38.466Z,14.59
2019-05-20T04:32:17.654Z,14.68
2019-05-20T04:34:51.037Z,14.77
2019-05-20T04:37:27.512Z,14.81
2019-05-20T04:40:00.189Z,14.90
2019-05-20T04:42:32.754Z,14.94
2019-05-20T04:45:06.982Z,15.03
2019-05-20T04:47:39.460Z,15.16
2019-05-20T04:50:12.441Z,15.26
2019-05-20T04:52:45.118Z,15.45
2019-05-20T04:55:17.841Z,15.64
2019-05-20T04:57:50.468Z,15.71
2019-05-20T05:00:50.241Z,15.90
2019-05-20T05:03:23.716Z,16.04
2019-05-20T05:05:56.493Z,16.20
2019-05-20T05:08:29.158Z,16.38
2019-05-20T05:11:02.033Z,16.53
2019-05-20T05:13:34.256Z,16.70
2019-05-20T05:16:06.986Z,16.92
2019-05-20T05:18:41.196Z,17.03
2019-05-20T05:21:13.872Z,17.28
2019-05-20T05:23:58.254Z,17.39
2019-05-20T05:26:20.865Z,17.45
2019-05-20T05:28:53.551Z,17.67
2019-05-20T05:31:26.231Z,17.81
2019-05-20T05:33:58.908Z,18.07
2019-05-20T05:36:31.582Z,18.30
2019-05-20T05:39:05.695Z,18.37
2019-05-20T05:41:38.376Z,18.51
2019-05-20T05:44:11.060Z,18.63
2019-05-20T05:46:43.737Z,18.67
2019-05-20T05:49:16.406Z,18.63
2019-05-20T05:51:49.087Z,18.85
2019-05-20T05:54:21.673Z,18.76
2019-05-20T05:56:54.342Z,18.77
2019-05-20T05:59:26.927Z,18.92
2019-05-20T06:01:59.601Z,19.06
2019-05-20T06:04:32.278Z,18.97
2019-05-20T06:07:04.959Z,19.22
2019-05-20T06:09:37.952Z,19.31
2019-05-20T06:12:10.627Z,19.34
2019-05-20T06:14:43.259Z,19.31
2019-05-20T06:17:15.888Z,19.28
2019-05-20T06:19:48.569Z,19.35
2019-05-20T06:22:21.246Z,19.42
2019-05-20T06:24:53.918Z,19.52
2019-05-20T06:27:26.600Z,19.54
2019-05-20T06:29:59.185Z,19.64
2019-05-20T06:32:32.061Z,19.70
2019-05-20T06:35:09.045Z,19.75
2019-05-20T06:37:47.919Z,19.96
2019-05-20T06:40:20.546Z,20.00
2019-05-20T06:42:53.936Z,20.06
2019-05-20T06:45:26.616Z,20.24
2019-05-20T06:47:59.298Z,20.52
2019-05-20T06:50:32.075Z,20.94
2019-05-20T06:53:06.497Z,21.27
2019-05-20T06:55:39.438Z,21.35
2019-05-20T06:58:12.469Z,21.39
2019-05-20T07:00:45.362Z,21.51
2019-05-20T07:03:18.034Z,21.62
2019-05-20T07:05:50.715Z,21.69
2019-05-20T07:08:23.411Z,21.73
2019-05-20T07:10:56.182Z,21.82
2019-05-20T07:13:29.165Z,22.00
2019-05-20T07:16:01.898Z,22.18
2019-05-20T07:18:34.627Z,21.91
2019-05-20T07:21:07.199Z,22.17
2019-05-20T07:23:39.882Z,22.34
2019-05-20T07:26:12.554Z,21.70
2019-05-20T07:28:45.200Z,21.33
2019-05-20T07:31:17.869Z,21.49
2019-05-20T07:33:50.490Z,21.55
2019-05-20T07:36:23.112Z,21.62
2019-05-20T07:38:56.786Z,21.84
2019-05-20T07:41:29.354Z,22.00
2019-05-20T07:44:02.148Z,22.05
2019-05-20T07:46:36.445Z,22.10
2019-05-20T07:49:10.197Z,21.94
2019-05-20T07:51:43.970Z,21.85
2019-05-20T07:54:17.253Z,21.88
2019-05-20T07:56:52.950Z,21.87
2019-05-20T07:59:27.939Z,21.76
2019-05-20T08:02:00.731Z,21.83
2019-05-20T08:04:34.053Z,21.72
2019-05-20T08:07:26.116Z,21.72
2019-05-20T08:09:45.678Z,21.74
2019-05-20T08:12:15.016Z,21.81
2019-05-20T08:14:47.702Z,21.89
2019-05-20T08:17:20.423Z,21.96
2019-05-20T08:19:53.061Z,22.12
2019-05-20T08:22:25.732Z,22.17
2019-05-20T08:24:58.465Z,22.08
2019-05-20T08:27:31.094Z,22.05
2019-05-20T08:30:04.185Z,22.10
2019-05-20T08:32:37.374Z,22.49
2019-05-20T08:35:11.282Z,22.83
2019-05-20T08:37:45.791Z,23.42
2019-05-20T08:40:17.601Z,23.21
2019-05-20T08:42:50.246Z,22.72
2019-05-20T08:45:22.925Z,22.52
2019-05-20T08:47:55.555Z,22.79
2019-05-20T08:50:28.279Z,22.62
2019-05-20T08:53:00.959Z,22.38
2019-05-20T08:55:33.858Z,21.81
2019-05-20T08:58:06.383Z,21.92
2019-05-20T09:00:39.611Z,22.05
2019-05-20T09:03:12.345Z,22.57
2019-05-20T09:05:45.063Z,22.43
2019-05-20T09:08:18.979Z,22.11
2019-05-20T09:10:51.651Z,22.07
2019-05-20T09:13:24.333Z,21.78
2019-05-20T09:15:57.021Z,21.80
2019-05-20T09:18:29.738Z,21.76
2019-05-20T09:21:02.659Z,21.65
2019-05-20T09:23:37.651Z,21.45
2019-05-20T09:26:10.341Z,21.50
2019-05-20T09:28:44.347Z,21.41
2019-05-20T09:31:17.192Z,21.48
2019-05-20T09:33:52.230Z,21.60
2019-05-20T09:36:26.031Z,21.33
2019-05-20T09:38:59.819Z,21.54
2019-05-20T09:41:35.372Z,21.53
2019-05-20T09:44:09.795Z,21.42
2019-05-20T09:46:43.854Z,21.47
2019-05-20T09:49:16.647Z,21.34
2019-05-20T09:51:49.626Z,21.39
2019-05-20T09:54:22.329Z,21.49
2019-05-20T09:56:54.681Z,21.49
2019-05-20T09:59:41.982Z,21.52
2019-05-20T10:02:01.862Z,21.38
2019-05-20T10:04:34.502Z,21.37
2019-05-20T10:07:07.319Z,21.23
2019-05-20T10:09:40.081Z,21.37
2019-05-20T10:12:12.815Z,21.31
2019-05-20T10:14:47.628Z,21.34
2019-05-20T10:17:20.366Z,21.17
2019-05-20T10:19:53.299Z,21.30
2019-05-20T10:22:26.032Z,21.29
2019-05-20T10:24:58.713Z,21.29
2019-05-20T10:27:34.624Z,21.17
2019-05-20T10:30:11.193Z,21.12
2019-05-20T10:32:43.929Z,21.12
2019-05-20T10:35:17.097Z,21.18
2019-05-20T10:37:49.775Z,21.19
2019-05-20T10:40:22.468Z,21.26
2019-05-20T10:42:55.148Z,21.39
2019-05-20T10:45:27.868Z,21.41
2019-05-20T10:48:00.606Z,21.53
2019-05-20T10:50:34.308Z,21.64
2019-05-20T10:53:07.031Z,21.74
2019-05-20T10:55:39.262Z,22.21
2019-05-20T10:58:11.939Z,22.69
2019-05-20T11:01:00.968Z,23.24
2019-05-20T11:03:18.668Z,23.85
2019-05-20T11:05:51.646Z,23.94
2019-05-20T11:08:24.290Z,23.97
2019-05-20T11:10:57.628Z,24.69
2019-05-20T11:13:30.464Z,24.58
2019-05-20T11:16:03.146Z,23.78
2019-05-20T11:18:35.826Z,23.52
2019-05-20T11:21:08.507Z,23.61
2019-05-20T11:23:40.898Z,23.32
2019-05-20T11:26:13.801Z,23.26
2019-05-20T11:28:47.976Z,23.83
2019-05-20T11:31:20.217Z,24.25
2019-05-20T11:33:52.620Z,24.05
2019-05-20T11:36:25.305Z,23.98
2019-05-20T11:38:57.595Z,24.26
2019-05-20T11:41:52.089Z,24.35
2019-05-20T11:44:04.820Z,24.54
2019-05-20T11:46:37.447Z,24.86
2019-05-20T11:49:10.140Z,24.47
2019-05-20T11:51:42.703Z,24.44
2019-05-20T11:54:15.843Z,24.89
2019-05-20T11:56:48.472Z,25.35
2019-05-20T11:59:21.154Z,25.71
2019-05-20T12:01:53.830Z,25.70
2019-05-20T12:04:27.739Z,25.85
2019-05-20T12:07:00.377Z,26.46
2019-05-20T12:09:48.105Z,27.05
2019-05-20T12:12:07.287Z,27.42
2019-05-20T12:14:39.985Z,26.55
2019-05-20T12:17:12.764Z,26.23
2019-05-20T12:19:45.460Z,25.65
2019-05-20T12:22:18.073Z,24.93
2019-05-20T12:24:51.812Z,24.82
2019-05-20T12:27:24.628Z,24.83
2019-05-20T12:29:57.305Z,24.98
2019-05-20T12:32:29.987Z,25.61
2019-05-20T12:35:02.810Z,25.55
2019-05-20T12:37:35.800Z,25.35
2019-05-20T12:40:09.983Z,25.62
2019-05-20T12:42:42.642Z,25.64
2019-05-20T12:45:15.536Z,25.94
2019-05-20T12:47:48.099Z,26.07
2019-05-20T12:50:20.872Z,25.71
2019-05-20T12:52:53.557Z,25.63
2019-05-20T12:55:26.228Z,25.62
2019-05-20T12:57:58.915Z,25.72
2019-05-20T13:00:32.108Z,25.85
2019-05-20T13:03:04.683Z,26.06
2019-05-20T13:05:37.375Z,26.02
2019-05-20T13:08:09.668Z,26.28
2019-05-20T13:10:42.418Z,26.16
2019-05-20T13:13:15.087Z,26.42
2019-05-20T13:15:47.768Z,26.44
2019-05-20T13:18:20.668Z,26.41
2019-05-20T13:20:53.334Z,26.13
2019-05-20T13:23:26.015Z,26.09
2019-05-20T13:25:58.693Z,25.40
2019-05-20T13:28:31.272Z,25.35
2019-05-20T13:31:03.569Z,26.36
2019-05-20T13:33:36.024Z,27.12
2019-05-20T13:36:08.684Z,26.25
2019-05-20T13:38:41.414Z,26.25
2019-05-20T13:41:13.680Z,25.56
2019-05-20T13:43:46.931Z,25.59
2019-05-20T13:46:19.913Z,25.34
2019-05-20T13:48:52.520Z,25.39
2019-05-20T13:51:25.177Z,24.63
2019-05-20T13:53:57.863Z,24.98
2019-05-20T13:56:30.540Z,24.34
2019-05-20T13:59:02.808Z,24.05
2019-05-20T14:01:35.480Z,24.38
2019-05-20T14:04:08.164Z,24.20
2019-05-20T14:06:40.900Z,24.52
2019-05-20T14:09:13.514Z,24.91
2019-05-20T14:11:46.206Z,25.58
2019-05-20T14:14:18.984Z,25.84
2019-05-20T14:16:52.690Z,26.99
2019-05-20T14:19:25.478Z,27.10
2019-05-20T14:21:58.169Z,26.18
2019-05-20T14:24:30.830Z,25.10
2019-05-20T14:27:03.922Z,25.44
2019-05-20T14:29:36.897Z,26.11
2019-05-20T14:32:09.578Z,26.28
2019-05-20T14:34:42.821Z,26.07
2019-05-20T14:37:15.587Z,26.20
2019-05-20T14:39:48.309Z,25.50
2019-05-20T14:42:21.110Z,25.95
2019-05-20T14:44:54.001Z,25.95
2019-05-20T14:47:26.735Z,24.77
2019-05-20T14:49:59.354Z,24.77
2019-05-20T14:52:31.986Z,24.14
2019-05-20T14:55:06.161Z,24.11
2019-05-20T14:57:39.235Z,24.77
2019-05-20T15:00:13.343Z,24.10
2019-05-20T15:02:46.342Z,23.96
2019-05-20T15:05:18.910Z,23.97
2019-05-20T15:07:51.594Z,25.69
2019-05-20T15:10:24.400Z,26.02
2019-05-20T15:12:57.047Z,26.26
2019-05-20T15:15:30.849Z,26.67
2019-05-20T15:18:03.227Z,27.33
2019-05-20T15:20:35.802Z,28.16
2019-05-20T15:23:09.206Z,26.44
2019-05-20T15:25:41.887Z,26.44
2019-05-20T15:28:15.782Z,27.03
2019-05-20T15:30:48.420Z,26.07
2019-05-20T15:33:21.483Z,27.68
2019-05-20T15:35:54.139Z,27.84
2019-05-20T15:38:27.621Z,26.73
2019-05-20T15:41:00.208Z,27.67
2019-05-20T15:43:32.894Z,27.45
2019-05-20T15:46:05.827Z,27.23
2019-05-20T15:48:38.683Z,27.23
2019-05-20T15:51:11.372Z,24.57
2019-05-20T15:53:44.076Z,24.41
2019-05-20T15:56:16.700Z,23.96
2019-05-20T15:58:49.368Z,26.51
2019-05-20T16:01:22.168Z,26.11
2019-05-20T16:03:55.249Z,26.65
2019-05-20T16:06:27.873Z,27.55
2019-05-20T16:09:01.845Z,27.84
2019-05-20T16:11:37.598Z,27.11
2019-05-20T16:14:10.578Z,25.22
2019-05-20T16:16:43.458Z,26.80
2019-05-20T16:19:16.282Z,27.95
2019-05-20T16:21:50.059Z,28.28
2019-05-20T16:24:23.144Z,28.48
2019-05-20T16:26:56.753Z,29.06
2019-05-20T16:29:29.590Z,28.49
2019-05-20T16:32:01.801Z,27.74
2019-05-20T16:34:35.353Z,27.29
2019-05-20T16:37:08.054Z,27.87
2019-05-20T16:39:41.139Z,27.19
2019-05-20T16:42:13.725Z,26.31
2019-05-20T16:44:46.002Z,25.34
2019-05-20T16:47:18.437Z,26.21
2019-05-20T16:49:51.155Z,25.36
2019-05-20T16:52:23.726Z,26.58
2019-05-20T16:54:56.411Z,28.64
2019-05-20T16:57:29.139Z,28.64
2019-05-20T17:00:01.871Z,28.80
2019-05-20T17:02:35.364Z,28.31
2019-05-20T17:05:11.225Z,27.51
2019-05-20T17:07:43.584Z,27.72
2019-05-20T17:10:16.683Z,27.75
2019-05-20T17:12:50.030Z,27.78
2019-05-20T17:15:22.649Z,24.53
2019-05-20T17:17:55.234Z,25.64
2019-05-20T17:20:27.526Z,24.52
2019-05-20T17:23:00.488Z,23.77
2019-05-20T17:25:34.403Z,24.77
2019-05-20T17:28:07.012Z,24.59
2019-05-20T17:30:45.625Z,24.99
2019-05-20T17:33:13.980Z,24.31
2019-05-20T17:35:46.642Z,23.29
2019-05-20T17:38:18.861Z,22.74
2019-05-20T17:40:54.478Z,22.49
2019-05-20T17:43:27.402Z,22.23
2019-05-20T17:46:01.152Z,22.13
2019-05-20T17:48:33.722Z,21.88
2019-05-20T17:51:06.459Z,21.87
2019-05-20T17:53:38.795Z,21.65
2019-05-20T17:56:11.107Z,21.57
2019-05-20T17:58:43.783Z,21.45
2019-05-20T18:01:16.337Z,21.28
2019-05-20T18:03:48.674Z,21.18
2019-05-20T18:06:20.953Z,21.09
2019-05-20T18:08:55.157Z,21.06
2019-05-20T18:11:27.900Z,20.89
2019-05-20T18:14:00.414Z,20.77
2019-05-20T18:16:33.096Z,20.72
2019-05-20T18:19:06.029Z,20.65
2019-05-20T18:21:39.225Z,20.53
2019-05-20T18:24:11.894Z,20.50
2019-05-20T18:26:44.528Z,20.39
2019-05-20T18:29:17.102Z,20.27
2019-05-20T18:31:49.379Z,20.16
2019-05-20T18:34:21.954Z,20.05
2019-05-20T18:36:54.241Z,19.97
2019-05-20T18:39:26.960Z,19.82
2019-05-20T18:41:59.355Z,19.70
2019-05-20T18:44:32.010Z,19.59
2019-05-20T18:47:04.832Z,19.49
2019-05-20T18:49:40.765Z,19.37
2019-05-20T18:52:11.733Z,19.30
2019-05-20T18:54:44.041Z,19.23
2019-05-20T18:57:16.711Z,19.15
2019-05-20T18:59:49.382Z,19.08
2019-05-20T19:02:22.862Z,18.93
2019-05-20T19:04:56.045Z,18.87
2019-05-20T19:07:29.138Z,18.82
2019-05-20T19:10:01.877Z,18.79
2019-05-20T19:12:34.649Z,18.74
2019-05-20T19:15:08.813Z,18.68
2019-05-20T19:17:41.331Z,18.61
2019-05-20T19:20:13.651Z,18.55
2019-05-20T19:22:46.953Z,18.40
2019-05-20T19:25:19.537Z,18.24
2019-05-20T19:27:52.204Z,18.09
2019-05-20T19:30:24.887Z,17.98
2019-05-20T19:32:57.176Z,17.93
2019-05-20T19:35:29.834Z,17.78
2019-05-20T19:38:02.613Z,17.69
2019-05-20T19:40:35.212Z,17.55
2019-05-20T19:43:07.880Z,17.40
2019-05-20T19:45:40.562Z,17.33
2019-05-20T19:48:13.461Z,17.21
2019-05-20T19:50:49.644Z,17.03
2019-05-20T19:53:23.201Z,16.87
2019-05-20T19:55:56.749Z,16.76
2019-05-20T19:58:30.684Z,16.63
2019-05-20T20:01:03.605Z,16.59
2019-05-20T20:03:37.005Z,16.55
2019-05-20T20:06:11.933Z,16.49
2019-05-20T20:08:46.758Z,16.42
2019-05-20T20:11:29.295Z,16.31
2019-05-20T20:14:06.888Z,16.28
2019-05-20T20:16:41.658Z,16.16
2019-05-20T20:19:15.849Z,16.10
2019-05-20T20:21:53.062Z,16.05
2019-05-20T20:24:27.782Z,15.99
2019-05-20T20:27:02.247Z,15.90
2019-05-20T20:29:39.547Z,15.84
2019-05-20T20:32:15.623Z,15.76
2019-05-20T20:34:52.175Z,15.73
2019-05-20T20:37:26.657Z,15.63
2019-05-20T20:40:01.006Z,15.58
2019-05-20T20:42:35.137Z,15.54
2019-05-20T20:45:08.748Z,15.56
2019-05-20T20:47:42.301Z,15.53
2019-05-20T20:50:15.820Z,15.53
2019-05-20T20:52:48.383Z,15.49
2019-05-20T20:55:21.042Z,15.52
2019-05-20T20:57:53.669Z,15.55
2019-05-20T21:00:26.364Z,15.58
2019-05-20T21:02:58.985Z,15.59
2019-05-20T21:05:32.352Z,15.51
2019-05-20T21:08:05.091Z,15.47
2019-05-20T21:10:38.261Z,15.41
2019-05-20T21:13:12.230Z,15.36
2019-05-20T21:15:45.150Z,15.27
2019-05-20T21:18:18.793Z,15.25
2019-05-20T21:20:51.493Z,15.18
2019-05-20T21:23:24.168Z,15.07
2019-05-20T21:25:56.797Z,15.00
2019-05-20T21:28:30.541Z,14.97
2019-05-20T21:31:03.222Z,14.92
2019-05-20T21:33:36.995Z,14.90
2019-05-20T21:36:09.664Z,14.88
2019-05-20T21:38:42.281Z,14.86
2019-05-20T21:41:14.912Z,14.81
2019-05-20T21:43:47.492Z,14.78
2019-05-20T21:46:21.188Z,14.78
2019-05-20T21:48:53.764Z,14.73
2019-05-20T21:51:26.457Z,14.65
2019-05-20T21:53:59.143Z,14.58
2019-05-20T21:56:31.809Z,14.51
2019-05-20T21:59:04.796Z,14.43
2019-05-20T22:01:37.475Z,14.39
2019-05-20T22:04:10.106Z,14.34
2019-05-20T22:06:42.834Z,14.31
2019-05-20T22:09:15.715Z,14.27
2019-05-20T22:11:48.702Z,14.28
2019-05-20T22:14:21.338Z,14.24
2019-05-20T22:16:55.201Z,14.18
2019-05-20T22:19:27.752Z,14.08
2019-05-20T22:22:18.312Z,14.00
2019-05-20T22:24:50.997Z,13.98
2019-05-20T22:27:23.782Z,13.88
2019-05-20T22:29:56.401Z,13.80
2019-05-20T22:32:30.306Z,13.71
2019-05-20T22:35:02.886Z,13.67
2019-05-20T22:37:36.607Z,13.69
2019-05-20T22:40:08.819Z,13.73
2019-05-20T22:42:42.866Z,13.79
2019-05-20T22:45:15.756Z,13.81
2019-05-20T22:47:48.530Z,13.89
2019-05-20T22:50:21.416Z,13.98
2019-05-20T22:52:54.206Z,13.99
2019-05-20T22:55:26.775Z,14.05
2019-05-20T22:57:59.462Z,14.05
2019-05-20T23:00:32.251Z,14.06
2019-05-20T23:03:05.216Z,14.08
2019-05-20T23:05:38.178Z,13.95
2019-05-20T23:08:10.886Z,13.97
2019-05-20T23:10:43.779Z,14.02
2019-05-20T23:13:16.551Z,14.07
2019-05-20T23:15:49.449Z,13.98
2019-05-20T23:18:23.772Z,13.80
2019-05-20T23:20:56.701Z,13.74
2019-05-20T23:23:29.332Z,13.74
2019-05-20T23:26:02.097Z,13.73
2019-05-20T23:28:34.786Z,13.68
2019-05-20T23:31:08.070Z,13.56
2019-05-20T23:33:40.652Z,13.51
2019-05-20T23:36:13.690Z,13.42
2019-05-20T23:38:46.519Z,13.40
2019-05-20T23:41:19.145Z,13.34
2019-05-20T23:43:51.885Z,13.30
2019-05-20T23:46:24.557Z,13.27
2019-05-20T23:48:57.238Z,13.13
2019-05-20T23:51:30.040Z,13.10
2019-05-20T23:54:02.761Z,13.10
2019-05-20T23:56:35.370Z,13.05
2019-05-20T23:59:08.112Z,13.02
